sensor_id;sensor_type;location;lat;lon;timestamp;P1;durP1;ratioP1;P2;durP2;ratioP2
56599;SDS011;51832;48.152;11.530;2024-01-30T00:03:18;8.88;;;5.70;;
56599;SDS011;51832;48.152;11.530;2024-01-30T00:08:18;10.15;;;5.95;;
56599;SDS011;51832;48.152;11.530;2024-01-30T00:13:19;8.60;;;5.70;;
56599;SDS011;51832;48.152;11.530;2024-01-30T00:18:20;12.63;;;6.38;;
56599;SDS011;51832;48.152;11.530;2024-01-30T00:23:20;12.98;;;5.95;;
56599;SDS011;51832;48.152;11.530;2024-01-30T00:28:20;11.20;;;7.20;;
56599;SDS011;51832;48.152;11.530;2024-01-30T00:33:21;12.43;;;6.13;;
56599;SDS011;51832;48.152;11.530;2024-01-30T00:38:22;6.30;;;4.38;;
56599;SDS011;51832;48.152;11.530;2024-01-30T00:43:22;7.07;;;4.47;;
56599;SDS011;51832;48.152;11.530;2024-01-30T00:48:24;7.22;;;5.15;;
56599;SDS011;51832;48.152;11.530;2024-01-30T00:53:25;9.80;;;6.15;;
56599;SDS011;51832;48.152;11.530;2024-01-30T00:58:26;6.90;;;4.93;;
56599;SDS011;51832;48.152;11.530;2024-01-30T01:03:26;7.70;;;4.75;;
56599;SDS011;51832;48.152;11.530;2024-01-30T01:08:27;8.90;;;5.47;;
56599;SDS011;51832;48.152;11.530;2024-01-30T01:13:27;9.93;;;5.55;;
56599;SDS011;51832;48.152;11.530;2024-01-30T01:18:28;7.38;;;5.00;;
56599;SDS011;51832;48.152;11.530;2024-01-30T01:23:28;9.52;;;5.70;;
56599;SDS011;51832;48.152;11.530;2024-01-30T01:28:29;8.20;;;5.47;;
56599;SDS011;51832;48.152;11.530;2024-01-30T01:33:29;7.85;;;5.10;;
56599;SDS011;51832;48.152;11.530;2024-01-30T01:38:30;9.02;;;4.75;;
56599;SDS011;51832;48.152;11.530;2024-01-30T01:43:30;6.95;;;4.50;;
56599;SDS011;51832;48.152;11.530;2024-01-30T01:48:30;11.85;;;5.18;;
56599;SDS011;51832;48.152;11.530;2024-01-30T01:53:31;7.90;;;5.05;;
56599;SDS011;51832;48.152;11.530;2024-01-30T01:58:32;7.43;;;4.78;;
56599;SDS011;51832;48.152;11.530;2024-01-30T02:03:33;7.68;;;4.00;;
56599;SDS011;51832;48.152;11.530;2024-01-30T02:08:34;5.75;;;4.15;;
56599;SDS011;51832;48.152;11.530;2024-01-30T02:13:37;7.15;;;4.47;;
56599;SDS011;51832;48.152;11.530;2024-01-30T02:18:37;8.32;;;4.22;;
56599;SDS011;51832;48.152;11.530;2024-01-30T02:23:43;7.95;;;4.07;;
56599;SDS011;51832;48.152;11.530;2024-01-30T02:33:46;6.32;;;4.20;;
56599;SDS011;51832;48.152;11.530;2024-01-30T02:38:47;7.35;;;4.00;;
56599;SDS011;51832;48.152;11.530;2024-01-30T02:43:47;5.65;;;3.97;;
56599;SDS011;51832;48.152;11.530;2024-01-30T02:48:48;5.72;;;3.72;;
56599;SDS011;51832;48.152;11.530;2024-01-30T02:53:48;6.75;;;3.35;;
56599;SDS011;51832;48.152;11.530;2024-01-30T02:58:49;6.55;;;3.63;;
56599;SDS011;51832;48.152;11.530;2024-01-30T03:03:49;6.32;;;3.58;;
56599;SDS011;51832;48.152;11.530;2024-01-30T03:08:50;4.47;;;3.35;;
56599;SDS011;51832;48.152;11.530;2024-01-30T03:13:50;5.68;;;3.58;;
56599;SDS011;51832;48.152;11.530;2024-01-30T03:18:51;6.53;;;3.78;;
56599;SDS011;51832;48.152;11.530;2024-01-30T03:23:52;5.03;;;3.38;;
56599;SDS011;51832;48.152;11.530;2024-01-30T03:28:53;7.05;;;3.03;;
56599;SDS011;51832;48.152;11.530;2024-01-30T03:33:53;5.88;;;3.80;;
56599;SDS011;51832;48.152;11.530;2024-01-30T03:38:54;5.45;;;2.92;;
56599;SDS011;51832;48.152;11.530;2024-01-30T03:43:54;4.78;;;2.80;;
56599;SDS011;51832;48.152;11.530;2024-01-30T03:48:55;2.88;;;2.30;;
56599;SDS011;51832;48.152;11.530;2024-01-30T03:53:55;3.97;;;2.42;;
56599;SDS011;51832;48.152;11.530;2024-01-30T03:58:56;4.35;;;2.42;;
56599;SDS011;51832;48.152;11.530;2024-01-30T04:03:57;3.53;;;2.40;;
56599;SDS011;51832;48.152;11.530;2024-01-30T04:08:57;3.78;;;2.50;;
56599;SDS011;51832;48.152;11.530;2024-01-30T04:13:57;4.10;;;2.58;;
56599;SDS011;51832;48.152;11.530;2024-01-30T04:18:58;4.35;;;2.42;;
56599;SDS011;51832;48.152;11.530;2024-01-30T04:23:58;3.53;;;2.58;;
56599;SDS011;51832;48.152;11.530;2024-01-30T04:28:59;5.32;;;2.30;;
56599;SDS011;51832;48.152;11.530;2024-01-30T04:33:59;4.78;;;2.20;;
56599;SDS011;51832;48.152;11.530;2024-01-30T04:39:00;3.08;;;2.03;;
56599;SDS011;51832;48.152;11.530;2024-01-30T04:44:00;4.30;;;2.45;;
56599;SDS011;51832;48.152;11.530;2024-01-30T04:49:01;6.15;;;2.58;;
56599;SDS011;51832;48.152;11.530;2024-01-30T04:54:01;4.07;;;2.10;;
56599;SDS011;51832;48.152;11.530;2024-01-30T04:59:02;4.47;;;2.65;;
56599;SDS011;51832;48.152;11.530;2024-01-30T05:04:03;3.58;;;2.20;;
56599;SDS011;51832;48.152;11.530;2024-01-30T05:09:03;4.55;;;2.20;;
56599;SDS011;51832;48.152;11.530;2024-01-30T05:14:07;9.07;;;2.72;;
56599;SDS011;51832;48.152;11.530;2024-01-30T05:19:12;5.68;;;3.00;;
56599;SDS011;51832;48.152;11.530;2024-01-30T05:24:17;3.20;;;2.15;;
56599;SDS011;51832;48.152;11.530;2024-01-30T05:29:18;4.10;;;2.63;;
56599;SDS011;51832;48.152;11.530;2024-01-30T05:34:18;2.88;;;2.10;;
56599;SDS011;51832;48.152;11.530;2024-01-30T05:39:19;4.55;;;2.60;;
56599;SDS011;51832;48.152;11.530;2024-01-30T05:44:20;4.50;;;2.38;;
56599;SDS011;51832;48.152;11.530;2024-01-30T05:49:20;5.38;;;2.80;;
56599;SDS011;51832;48.152;11.530;2024-01-30T05:54:20;3.22;;;2.20;;
56599;SDS011;51832;48.152;11.530;2024-01-30T05:59:21;4.68;;;2.40;;
56599;SDS011;51832;48.152;11.530;2024-01-30T06:04:21;4.20;;;2.53;;
56599;SDS011;51832;48.152;11.530;2024-01-30T06:09:22;3.80;;;2.70;;
56599;SDS011;51832;48.152;11.530;2024-01-30T06:14:22;6.63;;;2.90;;
56599;SDS011;51832;48.152;11.530;2024-01-30T06:19:23;3.90;;;2.67;;
56599;SDS011;51832;48.152;11.530;2024-01-30T06:24:23;4.03;;;2.63;;
56599;SDS011;51832;48.152;11.530;2024-01-30T06:29:24;5.03;;;2.47;;
56599;SDS011;51832;48.152;11.530;2024-01-30T06:34:26;5.35;;;2.30;;
56599;SDS011;51832;48.152;11.530;2024-01-30T06:39:27;5.57;;;2.67;;
56599;SDS011;51832;48.152;11.530;2024-01-30T06:44:27;5.57;;;2.83;;
56599;SDS011;51832;48.152;11.530;2024-01-30T06:49:28;6.90;;;2.78;;
56599;SDS011;51832;48.152;11.530;2024-01-30T06:54:28;6.97;;;2.47;;
56599;SDS011;51832;48.152;11.530;2024-01-30T06:59:29;6.43;;;3.10;;
56599;SDS011;51832;48.152;11.530;2024-01-30T07:04:29;5.70;;;3.15;;
56599;SDS011;51832;48.152;11.530;2024-01-30T07:09:31;13.73;;;5.82;;
56599;SDS011;51832;48.152;11.530;2024-01-30T07:14:31;3.85;;;2.70;;
56599;SDS011;51832;48.152;11.530;2024-01-30T07:19:32;3.65;;;2.05;;
56599;SDS011;51832;48.152;11.530;2024-01-30T07:24:32;6.15;;;2.63;;
56599;SDS011;51832;48.152;11.530;2024-01-30T07:29:33;3.83;;;2.85;;
56599;SDS011;51832;48.152;11.530;2024-01-30T07:34:33;10.82;;;4.43;;
56599;SDS011;51832;48.152;11.530;2024-01-30T07:39:34;6.03;;;3.35;;
56599;SDS011;51832;48.152;11.530;2024-01-30T07:44:34;8.05;;;4.13;;
56599;SDS011;51832;48.152;11.530;2024-01-30T07:49:35;6.55;;;3.40;;
56599;SDS011;51832;48.152;11.530;2024-01-30T07:54:39;4.97;;;3.20;;
56599;SDS011;51832;48.152;11.530;2024-01-30T07:59:41;8.65;;;3.05;;
56599;SDS011;51832;48.152;11.530;2024-01-30T08:04:42;6.72;;;3.33;;
56599;SDS011;51832;48.152;11.530;2024-01-30T08:09:43;4.22;;;2.60;;
56599;SDS011;51832;48.152;11.530;2024-01-30T08:14:44;6.70;;;2.90;;
56599;SDS011;51832;48.152;11.530;2024-01-30T08:19:44;4.25;;;2.75;;
56599;SDS011;51832;48.152;11.530;2024-01-30T08:24:45;6.18;;;2.70;;
56599;SDS011;51832;48.152;11.530;2024-01-30T08:29:45;3.88;;;2.78;;
56599;SDS011;51832;48.152;11.530;2024-01-30T08:34:46;3.13;;;2.13;;
56599;SDS011;51832;48.152;11.530;2024-01-30T08:39:46;14.93;;;6.57;;
56599;SDS011;51832;48.152;11.530;2024-01-30T08:44:46;5.20;;;2.55;;
56599;SDS011;51832;48.152;11.530;2024-01-30T08:49:47;4.45;;;2.63;;
56599;SDS011;51832;48.152;11.530;2024-01-30T08:54:47;4.50;;;2.70;;
56599;SDS011;51832;48.152;11.530;2024-01-30T08:59:48;5.82;;;3.00;;
56599;SDS011;51832;48.152;11.530;2024-01-30T09:04:48;4.30;;;2.45;;
56599;SDS011;51832;48.152;11.530;2024-01-30T09:09:49;4.07;;;2.40;;
56599;SDS011;51832;48.152;11.530;2024-01-30T09:14:49;5.90;;;2.80;;
56599;SDS011;51832;48.152;11.530;2024-01-30T09:19:50;5.93;;;2.30;;
56599;SDS011;51832;48.152;11.530;2024-01-30T09:24:50;11.23;;;5.00;;
56599;SDS011;51832;48.152;11.530;2024-01-30T09:29:50;5.25;;;2.53;;
56599;SDS011;51832;48.152;11.530;2024-01-30T09:34:51;8.07;;;2.88;;
56599;SDS011;51832;48.152;11.530;2024-01-30T09:39:52;5.32;;;2.53;;
56599;SDS011;51832;48.152;11.530;2024-01-30T09:44:52;6.03;;;2.60;;
56599;SDS011;51832;48.152;11.530;2024-01-30T09:49:53;5.38;;;3.05;;
56599;SDS011;51832;48.152;11.530;2024-01-30T09:54:56;6.73;;;2.70;;
56599;SDS011;51832;48.152;11.530;2024-01-30T09:59:59;6.93;;;3.15;;
56599;SDS011;51832;48.152;11.530;2024-01-30T10:05:00;4.82;;;2.35;;
56599;SDS011;51832;48.152;11.530;2024-01-30T10:10:01;6.78;;;2.40;;
56599;SDS011;51832;48.152;11.530;2024-01-30T10:15:01;7.55;;;4.47;;
56599;SDS011;51832;48.152;11.530;2024-01-30T10:20:04;6.22;;;3.00;;
56599;SDS011;51832;48.152;11.530;2024-01-30T10:25:05;4.85;;;2.17;;
56599;SDS011;51832;48.152;11.530;2024-01-30T10:30:07;5.75;;;2.45;;
56599;SDS011;51832;48.152;11.530;2024-01-30T10:35:08;4.55;;;2.50;;
56599;SDS011;51832;48.152;11.530;2024-01-30T10:40:09;9.90;;;4.28;;
56599;SDS011;51832;48.152;11.530;2024-01-30T10:45:13;6.47;;;2.85;;
56599;SDS011;51832;48.152;11.530;2024-01-30T10:50:18;3.17;;;2.03;;
56599;SDS011;51832;48.152;11.530;2024-01-30T10:55:20;3.88;;;1.85;;
56599;SDS011;51832;48.152;11.530;2024-01-30T11:00:22;4.40;;;2.10;;
56599;SDS011;51832;48.152;11.530;2024-01-30T11:05:24;5.35;;;2.17;;
56599;SDS011;51832;48.152;11.530;2024-01-30T11:10:27;2.90;;;2.17;;
56599;SDS011;51832;48.152;11.530;2024-01-30T11:15:29;9.57;;;2.58;;
56599;SDS011;51832;48.152;11.530;2024-01-30T11:20:31;5.97;;;2.00;;
56599;SDS011;51832;48.152;11.530;2024-01-30T11:25:32;3.83;;;2.40;;
56599;SDS011;51832;48.152;11.530;2024-01-30T11:30:33;3.20;;;1.85;;
56599;SDS011;51832;48.152;11.530;2024-01-30T11:35:43;2.90;;;1.80;;
56599;SDS011;51832;48.152;11.530;2024-01-30T11:40:45;4.30;;;2.10;;
56599;SDS011;51832;48.152;11.530;2024-01-30T11:45:46;3.95;;;2.72;;
56599;SDS011;51832;48.152;11.530;2024-01-30T11:50:46;5.70;;;2.67;;
56599;SDS011;51832;48.152;11.530;2024-01-30T11:55:50;4.95;;;2.35;;
56599;SDS011;51832;48.152;11.530;2024-01-30T12:00:56;4.57;;;2.10;;
56599;SDS011;51832;48.152;11.530;2024-01-30T12:05:58;3.75;;;1.95;;
56599;SDS011;51832;48.152;11.530;2024-01-30T12:10:58;3.35;;;2.10;;
56599;SDS011;51832;48.152;11.530;2024-01-30T12:16:01;4.50;;;1.52;;
56599;SDS011;51832;48.152;11.530;2024-01-30T12:21:02;2.92;;;1.70;;
56599;SDS011;51832;48.152;11.530;2024-01-30T12:26:02;3.30;;;1.50;;
56599;SDS011;51832;48.152;11.530;2024-01-30T12:31:07;2.47;;;1.63;;
56599;SDS011;51832;48.152;11.530;2024-01-30T12:36:08;2.30;;;1.40;;
56599;SDS011;51832;48.152;11.530;2024-01-30T12:41:09;3.42;;;2.10;;
56599;SDS011;51832;48.152;11.530;2024-01-30T12:46:10;3.55;;;1.83;;
56599;SDS011;51832;48.152;11.530;2024-01-30T12:51:11;3.92;;;1.60;;
56599;SDS011;51832;48.152;11.530;2024-01-30T12:56:11;6.15;;;2.80;;
56599;SDS011;51832;48.152;11.530;2024-01-30T13:01:12;3.45;;;1.92;;
56599;SDS011;51832;48.152;11.530;2024-01-30T13:06:12;6.13;;;2.15;;
56599;SDS011;51832;48.152;11.530;2024-01-30T13:11:13;5.40;;;1.90;;
56599;SDS011;51832;48.152;11.530;2024-01-30T13:16:13;4.75;;;1.75;;
56599;SDS011;51832;48.152;11.530;2024-01-30T13:21:14;5.68;;;2.13;;
56599;SDS011;51832;48.152;11.530;2024-01-30T13:26:14;3.70;;;1.83;;
56599;SDS011;51832;48.152;11.530;2024-01-30T13:31:15;2.83;;;1.80;;
56599;SDS011;51832;48.152;11.530;2024-01-30T13:36:16;2.15;;;1.42;;
56599;SDS011;51832;48.152;11.530;2024-01-30T13:41:16;2.33;;;1.30;;
56599;SDS011;51832;48.152;11.530;2024-01-30T13:46:17;5.53;;;1.70;;
56599;SDS011;51832;48.152;11.530;2024-01-30T13:51:18;2.15;;;1.50;;
56599;SDS011;51832;48.152;11.530;2024-01-30T13:56:19;3.95;;;1.88;;
56599;SDS011;51832;48.152;11.530;2024-01-30T14:01:20;3.90;;;2.17;;
56599;SDS011;51832;48.152;11.530;2024-01-30T14:06:21;3.40;;;2.20;;
56599;SDS011;51832;48.152;11.530;2024-01-30T14:11:21;5.57;;;2.10;;
56599;SDS011;51832;48.152;11.530;2024-01-30T14:16:22;6.38;;;1.92;;
56599;SDS011;51832;48.152;11.530;2024-01-30T14:21:24;6.78;;;3.60;;
56599;SDS011;51832;48.152;11.530;2024-01-30T14:26:24;4.22;;;1.90;;
56599;SDS011;51832;48.152;11.530;2024-01-30T14:31:25;3.75;;;2.50;;
56599;SDS011;51832;48.152;11.530;2024-01-30T14:36:25;2.40;;;2.03;;
56599;SDS011;51832;48.152;11.530;2024-01-30T14:41:28;2.40;;;2.05;;
56599;SDS011;51832;48.152;11.530;2024-01-30T14:46:28;3.45;;;2.22;;
56599;SDS011;51832;48.152;11.530;2024-01-30T14:51:29;3.42;;;2.17;;
56599;SDS011;51832;48.152;11.530;2024-01-30T14:56:30;4.43;;;2.30;;
56599;SDS011;51832;48.152;11.530;2024-01-30T15:01:30;5.07;;;2.20;;
56599;SDS011;51832;48.152;11.530;2024-01-30T15:06:31;7.85;;;2.58;;
56599;SDS011;51832;48.152;11.530;2024-01-30T15:11:31;2.92;;;2.22;;
56599;SDS011;51832;48.152;11.530;2024-01-30T15:16:33;6.45;;;2.65;;
56599;SDS011;51832;48.152;11.530;2024-01-30T15:21:33;4.57;;;2.63;;
56599;SDS011;51832;48.152;11.530;2024-01-30T15:26:34;4.80;;;2.97;;
56599;SDS011;51832;48.152;11.530;2024-01-30T15:31:34;6.25;;;2.83;;
56599;SDS011;51832;48.152;11.530;2024-01-30T15:36:35;4.97;;;2.67;;
56599;SDS011;51832;48.152;11.530;2024-01-30T15:41:36;4.90;;;2.78;;
56599;SDS011;51832;48.152;11.530;2024-01-30T15:46:36;5.72;;;2.92;;
56599;SDS011;51832;48.152;11.530;2024-01-30T15:51:37;4.20;;;2.90;;
56599;SDS011;51832;48.152;11.530;2024-01-30T15:56:37;10.07;;;3.03;;
56599;SDS011;51832;48.152;11.530;2024-01-30T16:01:38;4.47;;;3.15;;
56599;SDS011;51832;48.152;11.530;2024-01-30T16:06:39;4.93;;;2.80;;
56599;SDS011;51832;48.152;11.530;2024-01-30T16:11:40;9.82;;;4.00;;
56599;SDS011;51832;48.152;11.530;2024-01-30T16:16:41;4.38;;;2.92;;
56599;SDS011;51832;48.152;11.530;2024-01-30T16:21:41;5.32;;;2.88;;
56599;SDS011;51832;48.152;11.530;2024-01-30T16:26:44;6.97;;;2.85;;
56599;SDS011;51832;48.152;11.530;2024-01-30T16:31:44;5.40;;;2.83;;
56599;SDS011;51832;48.152;11.530;2024-01-30T16:36:45;5.35;;;3.28;;
56599;SDS011;51832;48.152;11.530;2024-01-30T16:41:46;6.07;;;2.70;;
56599;SDS011;51832;48.152;11.530;2024-01-30T16:46:46;5.85;;;3.22;;
56599;SDS011;51832;48.152;11.530;2024-01-30T16:51:47;7.30;;;3.45;;
56599;SDS011;51832;48.152;11.530;2024-01-30T16:56:47;4.53;;;3.40;;
56599;SDS011;51832;48.152;11.530;2024-01-30T17:01:48;7.15;;;3.40;;
56599;SDS011;51832;48.152;11.530;2024-01-30T17:06:49;6.85;;;4.15;;
56599;SDS011;51832;48.152;11.530;2024-01-30T17:11:50;7.30;;;3.55;;
56599;SDS011;51832;48.152;11.530;2024-01-30T17:16:51;6.22;;;3.35;;
56599;SDS011;51832;48.152;11.530;2024-01-30T17:21:52;5.70;;;3.28;;
56599;SDS011;51832;48.152;11.530;2024-01-30T17:26:53;5.10;;;3.55;;
56599;SDS011;51832;48.152;11.530;2024-01-30T17:31:53;5.63;;;3.03;;
56599;SDS011;51832;48.152;11.530;2024-01-30T17:36:54;5.95;;;2.95;;
56599;SDS011;51832;48.152;11.530;2024-01-30T17:41:54;6.00;;;3.03;;
56599;SDS011;51832;48.152;11.530;2024-01-30T17:46:55;3.70;;;2.80;;
56599;SDS011;51832;48.152;11.530;2024-01-30T17:51:55;5.07;;;2.92;;
56599;SDS011;51832;48.152;11.530;2024-01-30T17:56:56;6.43;;;3.60;;
56599;SDS011;51832;48.152;11.530;2024-01-30T18:01:56;6.30;;;3.58;;
56599;SDS011;51832;48.152;11.530;2024-01-30T18:06:57;6.97;;;3.47;;
56599;SDS011;51832;48.152;11.530;2024-01-30T18:11:58;5.95;;;3.25;;
56599;SDS011;51832;48.152;11.530;2024-01-30T18:16:59;5.88;;;3.50;;
56599;SDS011;51832;48.152;11.530;2024-01-30T18:22:00;7.72;;;3.90;;
56599;SDS011;51832;48.152;11.530;2024-01-30T18:27:00;8.82;;;4.82;;
56599;SDS011;51832;48.152;11.530;2024-01-30T18:32:01;9.43;;;3.67;;
56599;SDS011;51832;48.152;11.530;2024-01-30T18:37:02;16.98;;;8.82;;
56599;SDS011;51832;48.152;11.530;2024-01-30T18:42:02;13.15;;;4.22;;
56599;SDS011;51832;48.152;11.530;2024-01-30T18:47:03;7.88;;;3.85;;
56599;SDS011;51832;48.152;11.530;2024-01-30T18:52:03;8.20;;;4.25;;
56599;SDS011;51832;48.152;11.530;2024-01-30T18:57:05;5.75;;;3.72;;
56599;SDS011;51832;48.152;11.530;2024-01-30T19:02:05;6.20;;;3.80;;
56599;SDS011;51832;48.152;11.530;2024-01-30T19:07:06;8.38;;;4.43;;
56599;SDS011;51832;48.152;11.530;2024-01-30T19:12:06;7.78;;;4.45;;
56599;SDS011;51832;48.152;11.530;2024-01-30T19:17:07;9.30;;;3.95;;
56599;SDS011;51832;48.152;11.530;2024-01-30T19:22:07;6.50;;;4.32;;
56599;SDS011;51832;48.152;11.530;2024-01-30T19:27:08;8.00;;;4.95;;
56599;SDS011;51832;48.152;11.530;2024-01-30T19:32:09;7.10;;;4.93;;
56599;SDS011;51832;48.152;11.530;2024-01-30T19:37:09;7.22;;;6.13;;
56599;SDS011;51832;48.152;11.530;2024-01-30T19:42:10;13.65;;;6.55;;
56599;SDS011;51832;48.152;11.530;2024-01-30T19:47:10;13.32;;;6.03;;
56599;SDS011;51832;48.152;11.530;2024-01-30T19:52:11;7.93;;;4.82;;
56599;SDS011;51832;48.152;11.530;2024-01-30T19:57:12;10.50;;;5.30;;
56599;SDS011;51832;48.152;11.530;2024-01-30T20:02:12;6.63;;;4.45;;
56599;SDS011;51832;48.152;11.530;2024-01-30T20:07:18;8.18;;;4.88;;
56599;SDS011;51832;48.152;11.530;2024-01-30T20:12:19;6.10;;;4.30;;
56599;SDS011;51832;48.152;11.530;2024-01-30T20:17:19;8.15;;;4.15;;
56599;SDS011;51832;48.152;11.530;2024-01-30T20:22:22;6.03;;;3.60;;
56599;SDS011;51832;48.152;11.530;2024-01-30T20:27:22;7.43;;;4.43;;
56599;SDS011;51832;48.152;11.530;2024-01-30T20:32:24;7.45;;;4.18;;
56599;SDS011;51832;48.152;11.530;2024-01-30T20:37:24;8.57;;;4.57;;
56599;SDS011;51832;48.152;11.530;2024-01-30T20:42:25;5.93;;;4.10;;
56599;SDS011;51832;48.152;11.530;2024-01-30T20:47:25;7.85;;;4.68;;
56599;SDS011;51832;48.152;11.530;2024-01-30T20:52:26;6.72;;;4.63;;
56599;SDS011;51832;48.152;11.530;2024-01-30T20:57:26;9.52;;;4.82;;
56599;SDS011;51832;48.152;11.530;2024-01-30T21:02:27;7.25;;;4.13;;
56599;SDS011;51832;48.152;11.530;2024-01-30T21:07:27;7.03;;;4.32;;
56599;SDS011;51832;48.152;11.530;2024-01-30T21:12:28;8.80;;;4.00;;
56599;SDS011;51832;48.152;11.530;2024-01-30T21:17:28;7.93;;;4.72;;
56599;SDS011;51832;48.152;11.530;2024-01-30T21:22:29;8.07;;;4.70;;
56599;SDS011;51832;48.152;11.530;2024-01-30T21:27:29;7.40;;;4.72;;
56599;SDS011;51832;48.152;11.530;2024-01-30T21:32:30;7.47;;;5.07;;
56599;SDS011;51832;48.152;11.530;2024-01-30T21:37:31;7.18;;;4.60;;
56599;SDS011;51832;48.152;11.530;2024-01-30T21:42:35;6.60;;;4.03;;
56599;SDS011;51832;48.152;11.530;2024-01-30T21:47:36;6.95;;;4.40;;
56599;SDS011;51832;48.152;11.530;2024-01-30T21:52:37;7.70;;;4.47;;
56599;SDS011;51832;48.152;11.530;2024-01-30T21:57:37;8.18;;;5.07;;
56599;SDS011;51832;48.152;11.530;2024-01-30T22:02:37;6.38;;;4.45;;
56599;SDS011;51832;48.152;11.530;2024-01-30T22:07:38;7.40;;;4.32;;
56599;SDS011;51832;48.152;11.530;2024-01-30T22:12:39;7.20;;;4.35;;
56599;SDS011;51832;48.152;11.530;2024-01-30T22:17:39;7.40;;;4.40;;
56599;SDS011;51832;48.152;11.530;2024-01-30T22:22:40;7.75;;;4.28;;
56599;SDS011;51832;48.152;11.530;2024-01-30T22:27:40;7.80;;;4.47;;
56599;SDS011;51832;48.152;11.530;2024-01-30T22:32:41;5.93;;;3.83;;
56599;SDS011;51832;48.152;11.530;2024-01-30T22:37:41;5.97;;;3.78;;
56599;SDS011;51832;48.152;11.530;2024-01-30T22:42:42;7.20;;;4.20;;
56599;SDS011;51832;48.152;11.530;2024-01-30T22:47:42;6.07;;;3.88;;
56599;SDS011;51832;48.152;11.530;2024-01-30T22:52:44;6.38;;;3.83;;
56599;SDS011;51832;48.152;11.530;2024-01-30T22:57:46;5.82;;;3.55;;
56599;SDS011;51832;48.152;11.530;2024-01-30T23:02:46;5.60;;;3.45;;
56599;SDS011;51832;48.152;11.530;2024-01-30T23:07:47;4.22;;;3.50;;
56599;SDS011;51832;48.152;11.530;2024-01-30T23:12:48;5.05;;;3.47;;
56599;SDS011;51832;48.152;11.530;2024-01-30T23:17:48;8.73;;;3.35;;
56599;SDS011;51832;48.152;11.530;2024-01-30T23:22:49;5.15;;;3.35;;
56599;SDS011;51832;48.152;11.530;2024-01-30T23:27:49;6.60;;;3.35;;
56599;SDS011;51832;48.152;11.530;2024-01-30T23:32:50;5.15;;;3.42;;
56599;SDS011;51832;48.152;11.530;2024-01-30T23:37:53;4.30;;;3.40;;
56599;SDS011;51832;48.152;11.530;2024-01-30T23:42:54;4.93;;;2.83;;
56599;SDS011;51832;48.152;11.530;2024-01-30T23:47:54;5.20;;;3.05;;
56599;SDS011;51832;48.152;11.530;2024-01-30T23:52:55;5.25;;;3.20;;
56599;SDS011;51832;48.152;11.530;2024-01-30T23:57:55;3.95;;;2.90;;
